Time;durP1;ratioP1;P1;durP2;ratioP2;P2;SDS_P1;SDS_P2;PMS_P1;PMS_P2;Temp;Humidity;BMP_temperature;BMP_pressure;BME280_temperature;BME280_humidity;BME280_pressure;Samples;Min_cycle;Max_cycle;Signal;HPM_P1;HPM_P2
2021/11/09 00:02:02;;;;;;;11.73;3.45;;;5.30;99.90;;;;;;4988012;28;20133;-88
2021/11/09 00:04:37;;;;;;;7.03;3.23;;;5.30;99.90;;;;;;4990297;28;20110;-87
2021/11/09 00:09:58;;;;;;;7.05;3.30;;;5.40;99.90;;;;;;5023781;28;20073;-88
2021/11/09 00:12:33;;;;;;;12.02;3.85;;;5.50;99.90;;;;;;4991085;28;20042;-88
2021/11/09 00:15:00;;;;;;;8.80;3.22;;;5.50;99.90;;;;;;5020276;28;20047;-88
2021/11/09 00:17:27;;;;;;;8.50;3.38;;;5.50;99.90;;;;;;5003829;28;20047;-88
2021/11/09 00:19:53;;;;;;;7.65;3.63;;;5.60;99.90;;;;;;5003987;28;20039;-88
2021/11/09 00:22:22;;;;;;;8.32;3.92;;;5.60;99.90;;;;;;4987547;28;20046;-88
2021/11/09 00:24:48;;;;;;;9.50;4.53;;;5.50;99.90;;;;;;4987554;28;20068;-88
2021/11/09 00:27:14;;;;;;;13.75;4.82;;;5.50;99.90;;;;;;4987542;28;20510;-88
2021/11/09 00:29:41;;;;;;;17.95;4.72;;;5.40;99.90;;;;;;4987437;28;20105;-88
2021/11/09 00:32:08;;;;;;;7.47;3.65;;;5.30;99.90;;;;;;4987489;28;20130;-88
2021/11/09 00:34:35;;;;;;;10.05;4.00;;;5.30;99.90;;;;;;4987518;28;20054;-88
2021/11/09 00:37:03;;;;;;;7.90;4.35;;;5.10;99.90;;;;;;4986621;28;20039;-88
2021/11/09 00:39:28;;;;;;;9.88;4.28;;;5.10;99.90;;;;;;4987389;28;20035;-88
2021/11/09 00:41:54;;;;;;;8.43;4.50;;;5.10;99.90;;;;;;4987626;28;20041;-88
2021/11/09 00:44:20;;;;;;;9.15;4.65;;;5.10;99.90;;;;;;4987359;28;20050;-88
2021/11/09 00:46:46;;;;;;;12.43;5.47;;;5.00;99.90;;;;;;4989686;28;20471;-89
2021/11/09 00:49:11;;;;;;;9.27;4.43;;;5.10;99.90;;;;;;4990219;28;20173;-87
2021/11/09 00:51:37;;;;;;;12.25;5.20;;;5.10;99.90;;;;;;4990506;28;20088;-89
2021/11/09 00:54:04;;;;;;;11.40;5.40;;;5.10;99.90;;;;;;4990212;28;20038;-88
2021/11/09 00:56:30;;;;;;;12.63;5.22;;;5.00;99.90;;;;;;4990305;28;20118;-88
2021/11/09 00:58:57;;;;;;;11.50;4.35;;;4.90;99.90;;;;;;4990113;28;20106;-89
2021/11/09 01:01:23;;;;;;;9.60;4.68;;;4.90;99.90;;;;;;4990051;28;20048;-87
2021/11/09 01:03:49;;;;;;;12.18;4.75;;;4.90;99.90;;;;;;4990011;28;20097;-87
2021/11/09 01:06:15;;;;;;;8.90;4.90;;;4.80;99.90;;;;;;5003517;28;20062;-88
2021/11/09 01:08:40;;;;;;;9.63;4.82;;;4.80;99.90;;;;;;4989932;28;20053;-88
2021/11/09 01:11:06;;;;;;;8.55;3.88;;;4.70;99.90;;;;;;4990252;28;20054;-87
2021/11/09 01:13:32;;;;;;;9.13;4.97;;;4.80;99.90;;;;;;4990631;28;20383;-88
2021/11/09 01:15:58;;;;;;;7.88;3.97;;;4.80;99.90;;;;;;5009162;28;20050;-87
2021/11/09 01:18:32;;;;;;;9.70;3.75;;;4.90;99.90;;;;;;5009278;28;20054;-88
2021/11/09 01:20:59;;;;;;;7.80;4.00;;;4.90;99.90;;;;;;5009479;28;20410;-89
2021/11/09 01:23:25;;;;;;;7.47;3.85;;;4.80;99.90;;;;;;5009109;28;20042;-88
2021/11/09 01:25:51;;;;;;;10.18;4.63;;;4.80;99.90;;;;;;5009282;28;20073;-87
2021/11/09 01:28:17;;;;;;;11.10;4.47;;;4.70;99.90;;;;;;5009252;28;20060;-88
2021/11/09 01:30:45;;;;;;;10.90;4.03;;;4.70;99.90;;;;;;5009550;28;20045;-88
2021/11/09 01:33:11;;;;;;;8.90;4.18;;;4.70;99.90;;;;;;5009059;28;20042;-88
2021/11/09 01:35:37;;;;;;;7.95;4.10;;;4.70;99.90;;;;;;5009028;28;20054;-88
2021/11/09 01:38:04;;;;;;;6.40;3.92;;;4.60;99.90;;;;;;5009094;28;20094;-88
2021/11/09 01:40:30;;;;;;;10.02;3.55;;;4.70;99.90;;;;;;5008844;28;20049;-88
2021/11/09 01:42:57;;;;;;;7.82;3.85;;;4.70;99.90;;;;;;5025369;28;20038;-88
2021/11/09 01:45:24;;;;;;;11.20;4.70;;;4.70;99.90;;;;;;5008970;28;20065;-86
2021/11/09 01:47:51;;;;;;;15.02;5.20;;;4.60;99.90;;;;;;5008409;28;20057;-87
2021/11/09 01:50:26;;;;;;;7.78;4.15;;;4.60;99.90;;;;;;5008798;28;20041;-88
2021/11/09 01:52:53;;;;;;;7.43;4.05;;;4.60;99.90;;;;;;5008841;28;20044;-87
2021/11/09 01:55:21;;;;;;;10.35;4.57;;;4.60;99.90;;;;;;5008548;28;20050;-87
2021/11/09 01:57:48;;;;;;;9.38;4.10;;;4.60;99.90;;;;;;5008748;28;20092;-87
2021/11/09 02:00:19;;;;;;;11.05;4.13;;;4.50;99.90;;;;;;5008812;28;20099;-87
2021/11/09 02:02:45;;;;;;;10.80;4.65;;;4.50;99.90;;;;;;5024787;28;20109;-87
2021/11/09 02:05:13;;;;;;;15.02;5.20;;;4.50;99.90;;;;;;5000570;28;20433;-87
2021/11/09 02:07:51;;;;;;;7.82;4.13;;;4.50;99.90;;;;;;5005330;28;20042;-87
2021/11/09 02:10:19;;;;;;;7.97;4.47;;;4.40;99.90;;;;;;4989196;28;20051;-86
2021/11/09 02:12:45;;;;;;;10.25;3.47;;;4.40;99.90;;;;;;5005395;28;20049;-87
2021/11/09 02:15:12;;;;;;;8.82;4.32;;;4.40;99.90;;;;;;5019021;28;20046;-87
2021/11/09 02:17:40;;;;;;;10.10;3.83;;;4.40;99.90;;;;;;5008423;28;20045;-87
2021/11/09 02:20:08;;;;;;;14.82;3.75;;;4.40;99.90;;;;;;5025075;28;20077;-87
2021/11/09 02:22:34;;;;;;;8.00;3.70;;;4.40;99.90;;;;;;5008666;28;20133;-88
2021/11/09 02:25:03;;;;;;;9.18;3.97;;;4.30;99.90;;;;;;5008426;28;20118;-86
2021/11/09 02:27:29;;;;;;;8.35;3.95;;;4.40;99.90;;;;;;5008272;28;20046;-87
2021/11/09 02:29:54;;;;;;;12.13;4.47;;;4.40;99.90;;;;;;5008518;28;20042;-86
2021/11/09 02:32:20;;;;;;;9.73;4.47;;;4.30;99.90;;;;;;5008425;28;20052;-87
2021/11/09 02:34:46;;;;;;;10.90;5.55;;;4.20;99.90;;;;;;5008430;28;20076;-87
2021/11/09 02:37:11;;;;;;;11.25;4.13;;;4.20;99.90;;;;;;5008277;28;20494;-88
2021/11/09 02:39:37;;;;;;;9.43;4.20;;;4.10;99.90;;;;;;5008234;28;20048;-87
2021/11/09 02:42:12;;;;;;;10.40;4.47;;;4.10;99.90;;;;;;5008494;28;20038;-87
2021/11/09 02:44:49;;;;;;;10.98;3.92;;;4.10;99.90;;;;;;5008170;28;20037;-87
2021/11/09 02:47:15;;;;;;;10.65;4.28;;;4.10;99.90;;;;;;5024482;28;20502;-87
2021/11/09 02:50:01;;;;;;;9.48;3.90;;;4.10;99.90;;;;;;5008277;28;20030;-87
2021/11/09 02:52:29;;;;;;;12.15;4.72;;;4.10;99.90;;;;;;5008645;28;20037;-87
2021/11/09 02:55:05;;;;;;;10.95;5.20;;;4.20;99.90;;;;;;5008014;28;20065;-87
2021/11/09 02:57:45;;;;;;;14.18;5.03;;;4.10;99.90;;;;;;5008238;28;20034;-87
2021/11/09 03:00:33;;;;;;;21.35;5.35;;;4.20;99.90;;;;;;5008867;28;20061;-88
2021/11/09 03:03:15;;;;;;;9.23;4.80;;;4.20;99.90;;;;;;5011983;28;20034;-87
2021/11/09 03:08:41;;;;;;;11.38;5.18;;;4.20;99.90;;;;;;5008834;28;20061;-87
2021/11/09 03:11:06;;;;;;;14.40;5.75;;;4.20;99.90;;;;;;5009851;28;20057;-88
2021/11/09 03:13:33;;;;;;;17.98;6.15;;;4.20;99.90;;;;;;5009383;28;20038;-87
2021/11/09 03:16:06;;;;;;;12.55;6.55;;;4.20;99.90;;;;;;5011253;28;20080;-87
2021/11/09 03:18:39;;;;;;;16.67;6.68;;;4.20;99.90;;;;;;5011768;28;20033;-87
2021/11/09 03:45:17;;;;;;;14.93;5.53;;;4.20;99.90;;;;;;5011174;28;20048;-87
2021/11/09 03:47:46;;;;;;;16.42;6.30;;;4.10;99.90;;;;;;5030875;23;20054;-87
2021/11/09 03:50:14;;;;;;;11.70;5.45;;;4.20;99.90;;;;;;5014518;28;20063;-87
2021/11/09 03:52:48;;;;;;;13.90;5.70;;;4.20;99.90;;;;;;5047592;28;20038;-88
2021/11/09 03:55:15;;;;;;;15.23;5.88;;;4.20;99.90;;;;;;5033847;28;20048;-87
2021/11/09 04:00:55;;;;;;;14.10;5.57;;;4.10;99.90;;;;;;5026228;28;20041;-87
2021/11/09 04:03:38;;;;;;;14.68;6.30;;;4.00;99.90;;;;;;5026508;28;20041;-88
2021/11/09 04:06:26;;;;;;;16.42;5.60;;;4.10;99.90;;;;;;5025927;28;20037;-87
2021/11/09 04:08:58;;;;;;;12.02;5.40;;;4.10;99.90;;;;;;5009940;28;20053;-87
2021/11/09 04:14:33;;;;;;;17.88;6.32;;;4.20;99.90;;;;;;5026272;28;20057;-88
2021/11/09 04:17:57;;;;;;;11.70;5.97;;;4.10;99.90;;;;;;5009555;28;20073;-88
2021/11/09 04:20:01;;;;;;;14.38;5.35;;;4.10;99.90;;;;;;5001736;28;20084;-88
2021/11/09 04:25:35;;;;;;;13.27;4.70;;;4.10;99.90;;;;;;5025855;28;20046;-87
2021/11/09 04:34:09;;;;;;;10.07;5.75;;;4.00;99.90;;;;;;5066341;28;20071;-88
2021/11/09 04:36:58;;;;;;;12.13;5.53;;;4.00;99.90;;;;;;5043889;28;20493;-87
2021/11/09 04:52:35;;;;;;;10.50;4.75;;;3.90;99.90;;;;;;5028662;28;20040;-88
2021/11/09 05:11:07;;;;;;;12.73;5.50;;;3.90;99.90;;;;;;5065582;28;20041;-87
2021/11/09 05:13:32;;;;;;;17.60;4.95;;;3.90;99.90;;;;;;5049196;28;20061;-88
2021/11/09 05:15:58;;;;;;;15.60;5.07;;;3.90;99.90;;;;;;5048838;28;20056;-87
2021/11/09 05:18:27;;;;;;;14.75;5.38;;;3.90;99.90;;;;;;5048977;28;20055;-87
2021/11/09 05:20:53;;;;;;;18.55;6.15;;;4.00;99.90;;;;;;5048957;28;20051;-87
2021/11/09 05:23:18;;;;;;;15.20;5.93;;;4.00;99.90;;;;;;5048462;28;20068;-87
2021/11/09 05:25:44;;;;;;;15.13;6.05;;;4.00;99.90;;;;;;5049212;28;20036;-87
2021/11/09 05:28:10;;;;;;;17.90;6.03;;;4.00;99.90;;;;;;5048860;28;20097;-88
2021/11/09 05:30:39;;;;;;;12.95;4.57;;;4.10;99.90;;;;;;5048968;28;20127;-88
2021/11/09 05:33:05;;;;;;;14.85;6.03;;;4.10;99.90;;;;;;5048955;28;20392;-88
2021/11/09 05:35:31;;;;;;;14.27;5.50;;;4.10;99.90;;;;;;5048668;28;20278;-88
2021/11/09 05:37:58;;;;;;;10.40;4.93;;;4.10;99.90;;;;;;5048529;28;20064;-88
2021/11/09 05:40:36;;;;;;;14.70;5.57;;;4.00;99.90;;;;;;5049012;28;20048;-88
2021/11/09 05:43:04;;;;;;;13.65;5.25;;;4.00;99.90;;;;;;5050027;28;20112;-88
2021/11/09 05:45:30;;;;;;;15.63;5.38;;;4.00;99.90;;;;;;5032034;28;20041;-87
2021/11/09 05:47:56;;;;;;;12.90;5.43;;;4.00;99.90;;;;;;5052793;23;20117;-88
2021/11/09 05:50:22;;;;;;;15.93;5.68;;;4.10;99.90;;;;;;5062236;28;20041;-87
2021/11/09 05:52:48;;;;;;;12.98;5.40;;;4.10;99.90;;;;;;5061720;28;20064;-87
2021/11/09 05:55:14;;;;;;;17.90;5.63;;;4.10;99.90;;;;;;5046370;28;20049;-87
2021/11/09 05:57:40;;;;;;;13.30;5.95;;;4.10;99.90;;;;;;5061740;28;20033;-88
2021/11/09 06:00:07;;;;;;;17.88;6.25;;;4.10;99.90;;;;;;5061977;28;20129;-87
2021/11/09 06:02:38;;;;;;;15.07;6.10;;;4.10;99.90;;;;;;5046345;28;20111;-88
2021/11/09 06:05:04;;;;;;;14.90;5.82;;;4.10;99.90;;;;;;5061728;28;20486;-88
2021/11/09 06:07:30;;;;;;;11.77;5.40;;;4.00;99.90;;;;;;5061651;28;20045;-87
2021/11/09 06:09:56;;;;;;;19.50;5.88;;;4.00;99.90;;;;;;5042090;28;20436;-87
2021/11/09 06:12:22;;;;;;;13.07;4.80;;;4.00;99.90;;;;;;5061618;28;20090;-87
2021/11/09 06:14:47;;;;;;;16.60;6.00;;;4.00;99.90;;;;;;5045019;28;20049;-87
2021/11/09 06:17:13;;;;;;;12.13;5.22;;;4.10;99.90;;;;;;5061395;28;20045;-88
2021/11/09 06:19:38;;;;;;;14.90;4.80;;;4.10;99.90;;;;;;5061626;28;20145;-89
2021/11/09 06:22:05;;;;;;;11.45;5.00;;;4.10;99.90;;;;;;5061545;28;20041;-87
2021/11/09 06:24:31;;;;;;;19.15;6.32;;;4.00;99.90;;;;;;5061288;28;20037;-88
2021/11/09 06:26:58;;;;;;;17.42;5.80;;;4.10;99.90;;;;;;5060251;28;20048;-88
2021/11/09 06:29:24;;;;;;;14.15;5.30;;;4.00;99.90;;;;;;5026560;28;20137;-88
2021/11/09 06:31:49;;;;;;;15.38;5.38;;;4.00;99.90;;;;;;5028109;28;20041;-88
2021/11/09 06:34:16;;;;;;;9.60;4.22;;;4.00;99.90;;;;;;5044653;28;20044;-87
2021/11/09 06:36:43;;;;;;;19.33;5.47;;;4.00;99.90;;;;;;5044760;28;20068;-88
2021/11/09 06:39:09;;;;;;;14.13;4.72;;;3.90;99.90;;;;;;5048405;28;20038;-88
2021/11/09 06:41:34;;;;;;;12.65;4.32;;;4.00;99.90;;;;;;5044999;28;20042;-88
2021/11/09 06:44:00;;;;;;;15.85;4.15;;;3.90;99.90;;;;;;5044632;28;20106;-88
2021/11/09 06:46:26;;;;;;;15.38;4.55;;;3.90;99.90;;;;;;5051186;28;20068;-88
2021/11/09 06:48:52;;;;;;;11.55;4.75;;;3.90;99.90;;;;;;4995564;28;20138;-87
2021/11/09 06:51:18;;;;;;;8.68;3.88;;;3.90;99.90;;;;;;4995723;28;20042;-88
2021/11/09 06:53:44;;;;;;;17.85;5.00;;;3.90;99.90;;;;;;5044689;28;20050;-89
2021/11/09 06:56:13;;;;;;;11.95;4.50;;;3.90;99.90;;;;;;5048122;28;20113;-88
2021/11/09 06:58:38;;;;;;;12.68;4.90;;;3.90;99.90;;;;;;5048698;28;20040;-89
2021/11/09 07:01:05;;;;;;;14.57;5.13;;;3.90;99.90;;;;;;5064324;28;20037;-89
2021/11/09 07:03:33;;;;;;;10.95;4.22;;;3.90;99.90;;;;;;5064158;28;20038;-88
2021/11/09 07:06:00;;;;;;;11.20;4.18;;;3.90;99.90;;;;;;5063894;28;20144;-89
2021/11/09 07:08:27;;;;;;;15.38;5.15;;;3.90;99.90;;;;;;5030305;28;20042;-88
2021/11/09 07:10:53;;;;;;;10.25;4.47;;;3.90;99.90;;;;;;5047099;28;20056;-88
2021/11/09 07:13:19;;;;;;;11.20;4.18;;;3.90;99.90;;;;;;5046749;28;20037;-89
2021/11/09 07:15:45;;;;;;;15.50;4.88;;;3.80;99.90;;;;;;5046709;28;20095;-89
2021/11/09 07:18:14;;;;;;;12.43;4.90;;;3.90;99.90;;;;;;5054262;28;20041;-88
2021/11/09 07:20:39;;;;;;;14.23;4.78;;;3.90;99.90;;;;;;5023044;28;20065;-89
2021/11/09 07:23:06;;;;;;;13.48;5.18;;;3.90;99.90;;;;;;5031196;28;20136;-88
2021/11/09 07:25:32;;;;;;;15.85;4.45;;;4.00;99.90;;;;;;5047407;28;20048;-90
2021/11/09 07:28:00;;;;;;;14.82;4.78;;;3.90;99.90;;;;;;5042190;28;20053;-88
2021/11/09 07:30:28;;;;;;;13.82;4.90;;;3.90;99.90;;;;;;5033958;28;20066;-89
2021/11/09 07:32:55;;;;;;;18.63;4.70;;;3.90;99.90;;;;;;5017379;28;20110;-89
2021/11/09 07:35:20;;;;;;;14.60;5.00;;;4.00;99.90;;;;;;5038773;28;20049;-88
2021/11/09 07:37:46;;;;;;;13.98;5.65;;;4.00;99.90;;;;;;5040145;28;20121;-90
2021/11/09 07:40:12;;;;;;;12.38;4.90;;;4.00;99.90;;;;;;5048316;28;20037;-91
2021/11/09 07:42:47;;;;;;;13.25;4.47;;;4.10;99.90;;;;;;5037450;28;20065;-89
2021/11/09 07:45:19;;;;;;;12.50;4.97;;;4.10;99.90;;;;;;5029073;28;20234;-90
2021/11/09 07:47:46;;;;;;;16.25;4.18;;;4.10;99.90;;;;;;5058405;28;20493;-88
2021/11/09 07:50:12;;;;;;;16.25;4.72;;;4.10;99.90;;;;;;5028095;28;20041;-88
2021/11/09 07:52:38;;;;;;;11.25;4.50;;;4.20;99.90;;;;;;5044441;28;20048;-89
2021/11/09 07:55:07;;;;;;;15.75;4.88;;;4.20;99.90;;;;;;5020137;28;20053;-88
2021/11/09 07:57:43;;;;;;;18.45;6.30;;;4.40;99.90;;;;;;5025316;28;20042;-89
2021/11/09 08:00:21;;;;;;;16.67;5.28;;;4.40;99.90;;;;;;5011965;28;20037;-89
2021/11/09 08:03:01;;;;;;;16.90;5.15;;;4.40;99.90;;;;;;5034144;28;20029;-90
2021/11/09 08:05:43;;;;;;;16.50;6.35;;;4.50;99.90;;;;;;5012557;28;20041;-88
2021/11/09 08:08:17;;;;;;;10.60;4.47;;;4.50;99.90;;;;;;5011809;28;20061;-87
2021/11/09 08:10:44;;;;;;;13.75;5.35;;;4.60;99.90;;;;;;5033182;28;20041;-86
2021/11/09 08:13:09;;;;;;;13.85;5.38;;;4.70;99.90;;;;;;5041698;28;20049;-88
2021/11/09 08:15:36;;;;;;;19.83;6.05;;;4.90;99.90;;;;;;5043072;28;20090;-87
2021/11/09 08:18:03;;;;;;;18.10;4.88;;;5.00;99.90;;;;;;5046244;28;20053;-85
2021/11/09 08:20:29;;;;;;;21.67;6.45;;;5.00;99.90;;;;;;5029161;28;20047;-87
2021/11/09 08:22:54;;;;;;;11.02;4.82;;;5.10;99.90;;;;;;5059578;28;20041;-86
2021/11/09 08:25:20;;;;;;;15.93;5.78;;;5.10;99.90;;;;;;5045596;28;20040;-86
2021/11/09 08:28:10;;;;;;;14.15;4.72;;;5.20;99.90;;;;;;5028747;28;20134;-87
2021/11/09 08:30:36;;;;;;;13.90;5.10;;;5.30;99.90;;;;;;5042094;28;20048;-85
2021/11/09 08:33:04;;;;;;;13.00;6.13;;;5.40;99.90;;;;;;5045460;28;20048;-86
2021/11/09 08:35:30;;;;;;;15.80;5.78;;;5.50;99.90;;;;;;5029080;28;20512;-86
2021/11/09 08:37:56;;;;;;;16.88;5.82;;;5.60;99.90;;;;;;5036310;28;20049;-86
2021/11/09 08:40:23;;;;;;;14.40;5.80;;;5.70;99.90;;;;;;5038242;28;20042;-86
2021/11/09 08:42:53;;;;;;;11.90;5.30;;;5.80;99.90;;;;;;5062500;28;20080;-86
2021/11/09 08:45:32;;;;;;;15.77;6.18;;;5.90;99.90;;;;;;5029134;28;20040;-88
2021/11/09 08:48:08;;;;;;;16.08;6.07;;;6.00;99.90;;;;;;5014346;28;20074;-87
2021/11/09 08:50:34;;;;;;;17.08;5.82;;;6.10;99.90;;;;;;5023009;28;20033;-88
2021/11/09 08:53:05;;;;;;;15.10;6.10;;;6.20;99.90;;;;;;5043916;28;20052;-88
2021/11/09 09:05:58;;;;;;;15.85;8.07;;;6.70;99.90;;;;;;5049483;28;20052;-88
2021/11/09 09:08:24;;;;;;;14.43;7.40;;;6.80;99.90;;;;;;5041647;28;20065;-88
2021/11/09 09:10:50;;;;;;;16.80;6.93;;;6.80;99.90;;;;;;5044540;28;20037;-89
2021/11/09 09:13:16;;;;;;;17.10;7.82;;;6.90;99.90;;;;;;5040286;28;20117;-88
2021/11/09 09:15:42;;;;;;;17.02;8.60;;;7.00;99.90;;;;;;5034011;28;20041;-93
2021/11/09 09:18:08;;;;;;;21.83;9.30;;;7.00;99.90;;;;;;5041348;28;20037;-87
2021/11/09 09:20:43;;;;;;;20.27;7.80;;;7.10;99.90;;;;;;5038409;28;20130;-87
2021/11/09 09:23:16;;;;;;;11.38;6.55;;;7.20;99.90;;;;;;5042234;28;20113;-90
2021/11/09 09:25:47;;;;;;;20.38;8.38;;;7.20;99.90;;;;;;5043635;28;20184;-89
2021/11/09 09:28:29;;;;;;;17.10;7.30;;;7.30;99.90;;;;;;5039846;28;20057;-87
2021/11/09 09:53:20;;;;;;;12.18;7.25;;;8.30;99.90;;;;;;5056638;28;20191;-89
2021/11/09 09:55:46;;;;;;;12.55;6.20;;;8.40;99.90;;;;;;5040861;28;20061;-90
2021/11/09 09:58:12;;;;;;;14.13;7.18;;;8.40;99.90;;;;;;5023999;28;20050;-88
2021/11/09 10:00:42;;;;;;;16.88;5.22;;;8.50;99.90;;;;;;5039678;28;20071;-87
2021/11/09 10:03:08;;;;;;;13.75;6.28;;;8.70;99.90;;;;;;5037446;28;20038;-87
2021/11/09 10:05:38;;;;;;;15.50;6.82;;;8.70;99.90;;;;;;5041385;28;20099;-87
2021/11/09 10:08:19;;;;;;;10.70;5.95;;;8.70;99.90;;;;;;5033088;28;20038;-88
2021/11/09 10:10:46;;;;;;;16.42;6.32;;;8.80;99.90;;;;;;5055652;28;20076;-87
2021/11/09 10:13:20;;;;;;;14.32;7.72;;;8.80;99.90;;;;;;5041648;28;20052;-86
2021/11/09 10:15:56;;;;;;;13.07;5.15;;;8.90;99.90;;;;;;5041282;28;20049;-88
2021/11/09 10:18:24;;;;;;;16.55;6.30;;;8.90;99.90;;;;;;5021254;28;20442;-88
2021/11/09 10:20:52;;;;;;;10.10;4.43;;;9.10;99.90;;;;;;5032652;28;20044;-87
2021/11/09 10:23:24;;;;;;;15.20;6.45;;;9.10;99.90;;;;;;5043064;28;20033;-90
2021/11/09 10:25:53;;;;;;;10.65;4.97;;;9.20;99.90;;;;;;5040712;28;20059;-88
2021/11/09 10:28:24;;;;;;;13.15;5.75;;;9.30;99.90;;;;;;5032257;28;20034;-87
2021/11/09 10:30:57;;;;;;;16.38;6.40;;;9.40;99.90;;;;;;5036434;28;20527;-88
2021/11/09 10:33:27;;;;;;;15.98;6.20;;;9.40;99.90;;;;;;5049008;28;20068;-88
2021/11/09 10:35:54;;;;;;;14.53;6.67;;;9.40;99.90;;;;;;5023616;28;20060;-88
2021/11/09 10:38:31;;;;;;;19.33;7.30;;;9.40;99.90;;;;;;5040298;28;20802;-87
2021/11/09 10:40:59;;;;;;;12.98;5.70;;;9.60;99.90;;;;;;5046875;28;20599;-88
2021/11/09 10:43:30;;;;;;;16.90;8.43;;;9.50;99.90;;;;;;5043484;28;20086;-87
2021/11/09 10:45:56;;;;;;;18.48;8.35;;;9.50;99.90;;;;;;5037922;28;20041;-85
2021/11/09 10:48:23;;;;;;;14.07;6.85;;;9.60;99.90;;;;;;5022537;28;20109;-88
2021/11/09 10:50:55;;;;;;;20.52;6.82;;;9.60;99.90;;;;;;5032465;28;20037;-90
2021/11/09 10:59:27;;;;;;;19.67;7.60;;;9.80;99.90;;;;;;5029512;28;20044;-88
2021/11/09 11:04:44;;;;;;;18.23;6.55;;;10.00;99.90;;;;;;5045541;28;20030;-87
2021/11/09 11:07:13;;;;;;;13.88;6.28;;;10.10;99.90;;;;;;5051237;28;20076;-89
2021/11/09 11:09:57;;;;;;;14.85;5.95;;;10.10;99.90;;;;;;5044710;28;20129;-88
2021/11/09 11:12:25;;;;;;;16.05;6.88;;;10.20;99.90;;;;;;5033668;28;20104;-88
2021/11/09 11:14:51;;;;;;;14.05;6.03;;;10.10;99.90;;;;;;5030169;28;20072;-87
2021/11/09 11:17:18;;;;;;;14.05;6.63;;;10.10;99.90;;;;;;5039974;28;20041;-85
2021/11/09 11:19:55;;;;;;;14.38;5.53;;;10.10;99.90;;;;;;5049665;28;20046;-88
2021/11/09 11:22:23;;;;;;;19.75;5.93;;;10.30;99.90;;;;;;5046799;28;20068;-87
2021/11/09 11:24:51;;;;;;;18.98;5.53;;;10.30;99.90;;;;;;5046687;28;20096;-88
2021/11/09 11:27:18;;;;;;;16.52;6.00;;;10.60;99.90;;;;;;5046512;28;20041;-88
2021/11/09 11:29:44;;;;;;;18.67;6.00;;;10.70;99.90;;;;;;5045911;28;20037;-88
2021/11/09 11:32:13;;;;;;;16.13;5.65;;;10.60;99.90;;;;;;5043596;28;20035;-89
2021/11/09 11:34:39;;;;;;;11.48;5.70;;;10.80;99.90;;;;;;5034831;28;20988;-86
2021/11/09 11:37:06;;;;;;;9.27;4.78;;;10.70;99.90;;;;;;5035020;28;20067;-86
2021/11/09 11:39:34;;;;;;;18.55;5.95;;;10.80;99.90;;;;;;5042724;28;20037;-86
2021/11/09 11:42:07;;;;;;;20.77;6.38;;;10.80;99.90;;;;;;5044183;28;20041;-87
2021/11/09 11:44:32;;;;;;;15.18;5.68;;;10.80;99.90;;;;;;5042951;28;20101;-86
2021/11/09 11:47:00;;;;;;;19.58;6.32;;;10.80;99.90;;;;;;5041608;28;20038;-86
2021/11/09 11:49:41;;;;;;;22.88;6.90;;;10.80;99.90;;;;;;5039953;28;20084;-87
2021/11/09 11:52:30;;;;;;;16.65;4.95;;;10.80;99.90;;;;;;5040794;28;20037;-87
2021/11/09 11:54:56;;;;;;;15.90;5.30;;;11.00;99.90;;;;;;5058655;28;20041;-91
2021/11/09 11:57:38;;;;;;;13.63;5.50;;;11.00;99.90;;;;;;5044259;28;20038;-91
2021/11/09 12:00:28;;;;;;;12.65;5.30;;;11.10;99.90;;;;;;5050198;28;20041;-90
2021/11/09 12:02:54;;;;;;;;;;;10.90;99.90;;;;;;5045592;28;20529;-90
2021/11/09 12:05:38;;;;;;;12.90;5.50;;;11.00;99.90;;;;;;5039169;28;19916;-89
2021/11/09 12:08:05;;;;;;;13.93;5.28;;;11.10;99.90;;;;;;5043967;28;20220;-89
2021/11/09 12:11:00;;;;;;;14.15;4.85;;;11.20;99.90;;;;;;5045430;28;20045;-88
2021/11/09 12:13:26;;;;;;;16.35;5.55;;;11.10;99.90;;;;;;5025138;28;20033;-89
2021/11/09 12:15:53;;;;;;;14.75;4.57;;;11.10;99.90;;;;;;5043956;28;20073;-89
2021/11/09 12:18:42;;;;;;;12.73;4.63;;;11.10;99.90;;;;;;5046973;28;20058;-87
2021/11/09 12:21:34;;;;;;;14.18;4.75;;;11.10;99.90;;;;;;5042868;28;20497;-89
2021/11/09 12:24:12;;;;;;;17.73;4.80;;;11.10;99.90;;;;;;5014877;28;20402;-90
2021/11/09 12:26:44;;;;;;;10.15;4.07;;;11.20;99.90;;;;;;5048244;28;20045;-89
2021/11/09 12:29:34;;;;;;;12.48;3.65;;;11.40;99.90;;;;;;5052501;28;20038;-91
2021/11/09 12:32:24;;;;;;;14.65;4.00;;;11.30;99.90;;;;;;5030178;28;20041;-88
2021/11/09 12:35:14;;;;;;;12.63;4.50;;;11.40;99.90;;;;;;5053780;28;20037;-89
2021/11/09 12:37:55;;;;;;;13.13;4.15;;;11.40;99.90;;;;;;5048939;28;20291;-90
2021/11/09 12:40:29;;;;;;;12.20;4.57;;;11.50;99.90;;;;;;5037073;28;20033;-89
2021/11/09 12:43:16;;;;;;;12.35;3.63;;;11.50;99.90;;;;;;5036972;28;20100;-89
2021/11/09 12:46:13;;;;;;;10.05;3.85;;;11.50;99.90;;;;;;5037608;28;20049;-85
2021/11/09 12:48:52;;;;;;;17.27;4.53;;;11.30;99.90;;;;;;4980519;28;20100;-86
2021/11/09 12:51:25;;;;;;;12.18;4.28;;;11.30;99.90;;;;;;4982806;28;20118;-87
2021/11/09 12:53:52;;;;;;;13.55;4.05;;;11.50;99.90;;;;;;4978737;28;20092;-87
2021/11/09 12:56:35;;;;;;;12.25;4.65;;;11.40;99.90;;;;;;4985334;28;20050;-86
2021/11/09 12:59:19;;;;;;;17.48;4.72;;;11.40;99.90;;;;;;4985601;28;20045;-85
2021/11/09 13:04:19;;;;;;;14.23;4.47;;;11.30;99.90;;;;;;4985827;28;20072;-87
2021/11/09 13:09:48;;;;;;;16.23;4.10;;;11.50;99.90;;;;;;4985551;28;20054;-85
2021/11/09 13:12:15;;;;;;;10.68;3.90;;;11.40;99.90;;;;;;4986072;28;20132;-86
2021/11/09 13:14:42;;;;;;;13.45;3.67;;;11.50;99.90;;;;;;4969514;28;20042;-84
2021/11/09 13:17:18;;;;;;;13.77;4.63;;;11.40;99.90;;;;;;5001690;28;20049;-84
2021/11/09 13:19:46;;;;;;;12.75;4.32;;;11.20;99.90;;;;;;5001897;28;20073;-86
2021/11/09 13:22:15;;;;;;;13.85;4.05;;;11.30;99.90;;;;;;4985111;28;20038;-87
2021/11/09 13:25:08;;;;;;;10.80;2.97;;;11.10;99.90;;;;;;4974840;28;20034;-86
2021/11/09 13:27:48;;;;;;;11.02;3.75;;;11.40;99.90;;;;;;5014788;28;20061;-86
2021/11/09 13:30:22;;;;;;;16.90;5.18;;;11.40;99.90;;;;;;5023891;28;20083;-88
2021/11/09 13:32:54;;;;;;;12.25;3.75;;;11.30;99.90;;;;;;5022844;28;20235;-88
2021/11/09 13:35:27;;;;;;;16.73;4.28;;;11.40;99.90;;;;;;5016118;28;20046;-88
2021/11/09 13:38:06;;;;;;;10.63;3.17;;;11.40;99.90;;;;;;5025288;28;20063;-89
2021/11/09 13:40:32;;;;;;;12.18;3.80;;;11.40;99.90;;;;;;5027233;28;20037;-85
2021/11/09 13:43:06;;;;;;;11.68;3.65;;;11.50;99.90;;;;;;5007775;28;20063;-88
2021/11/09 13:45:33;;;;;;;9.38;3.33;;;11.40;99.90;;;;;;5019569;28;20048;-86
2021/11/09 13:47:59;;;;;;;13.52;3.33;;;11.40;99.90;;;;;;5014575;28;20077;-92
2021/11/09 13:50:27;;;;;;;12.38;3.28;;;11.40;99.90;;;;;;5044311;28;20048;-91
2021/11/09 13:52:54;;;;;;;12.35;3.30;;;11.50;99.90;;;;;;5045826;28;20037;-89
2021/11/09 13:55:21;;;;;;;14.77;3.25;;;11.30;99.90;;;;;;5038104;28;20042;-91
2021/11/09 13:57:48;;;;;;;9.38;2.85;;;11.30;99.90;;;;;;5024154;28;20053;-90
2021/11/09 14:00:32;;;;;;;10.70;2.90;;;11.30;99.90;;;;;;5028853;28;20489;-90
2021/11/09 14:03:15;;;;;;;9.32;2.63;;;11.30;99.90;;;;;;5043915;28;20034;-91
2021/11/09 14:11:37;;;;;;;13.38;3.60;;;11.10;99.90;;;;;;5043749;28;20037;-90
2021/11/09 14:14:16;;;;;;;7.60;3.00;;;11.10;99.90;;;;;;5041638;28;20056;-91
2021/11/09 14:16:55;;;;;;;10.63;3.00;;;11.00;99.90;;;;;;5040444;28;20068;-92
2021/11/09 14:19:32;;;;;;;8.65;2.53;;;11.10;99.90;;;;;;5039938;28;20086;-93
2021/11/09 14:22:07;;;;;;;13.10;2.83;;;11.00;99.90;;;;;;5040460;28;20082;-94
2021/11/09 14:24:32;;;;;;;10.98;2.88;;;10.90;99.90;;;;;;5045306;28;20041;-95
2021/11/09 14:27:20;;;;;;;7.78;2.83;;;11.00;99.90;;;;;;5046460;28;20128;-95
2021/11/09 14:30:16;;;;;;;7.10;2.10;;;10.90;99.90;;;;;;5029399;28;20099;-96
2021/11/09 14:32:45;;;;;;;8.68;2.50;;;11.00;99.90;;;;;;5030202;28;20044;-95
2021/11/09 14:35:21;;;;;;;10.90;2.65;;;10.90;99.90;;;;;;5040075;28;20073;-93
2021/11/09 14:38:01;;;;;;;9.77;2.65;;;10.70;99.90;;;;;;5054943;28;20057;-92
2021/11/09 14:40:33;;;;;;;;;;;10.80;99.90;;;;;;5042794;28;20083;-92
2021/11/09 14:43:12;;;;;;;7.28;1.85;;;10.60;99.90;;;;;;5060856;28;19909;-91
2021/11/09 14:46:07;;;;;;;11.50;2.00;;;10.70;99.90;;;;;;5035387;28;20037;-92
2021/11/09 14:48:51;;;;;;;9.00;1.88;;;10.50;99.90;;;;;;4994465;28;20069;-95
2021/11/09 14:51:29;;;;;;;14.02;2.33;;;10.60;99.90;;;;;;5010173;28;20092;-94
2021/11/09 14:54:01;;;;;;;13.05;2.63;;;10.50;99.90;;;;;;5006330;28;20543;-94
2021/11/09 14:56:35;;;;;;;10.25;2.08;;;10.40;99.90;;;;;;5007372;28;20057;-94
2021/11/09 14:59:03;;;;;;;10.05;1.90;;;10.40;99.90;;;;;;5010265;28;20099;-94
2021/11/09 15:01:46;;;;;;;6.93;1.70;;;10.40;99.90;;;;;;5026814;28;20052;-95
2021/11/09 15:04:26;;;;;;;7.15;1.38;;;10.30;99.90;;;;;;5011449;28;20163;-93
2021/11/09 15:28:16;;;;;;;9.85;1.27;;;9.80;99.90;;;;;;5065340;28;20048;-92
2021/11/09 15:33:49;;;;;;;6.53;1.02;;;9.70;99.90;;;;;;5046638;28;20239;-92
2021/11/09 15:36:25;;;;;;;5.85;1.10;;;9.50;99.90;;;;;;5060774;28;20049;-92